Alpha Bulker — 3EEZ9 — position and weather

sailwx.info

Track history (hours):
 
Tides and Currents Weather Stations Pressure Air Temp Water Temp Dewpoint Dewpoint Depression Visibility Wind Speed Wind Dir Waves Ship Positions

Alpha Bulker

Last reported at 2018-Feb-17 19:57 UTC. Time now 2018-Feb-20 11:55 UTC.
Position N 15°01' E 119°42'.

Length 177 m; draft 8.9 m.

Type: Ship. MMSI: 371977000.

Date/timePositionNaut miles runAvg speedWind from/ knotsBaromVisibWave heightAir tempDewpointWater temp
2018-Feb-17 19:57N 15°01' E 119°42'42113.0
2018-Feb-16 11:27N 22°02' E 119°52'713.3
2018-Feb-16 10:53N 22°09' E 119°52'713.6
2018-Feb-16 10:24N 22°16' E 119°52'514.0
2018-Feb-16 10:00N 22°22' E 119°52'714.0
2018-Feb-16 09:30N 22°29' E 119°53'713.9
2018-Feb-16 09:00N 22°35' E 119°53'713.9
2018-Feb-16 08:31N 22°42' E 119°54'713.9
2018-Feb-16 08:00N 22°49' E 119°54'714.0
2018-Feb-16 07:30N 22°57' E 119°54'813.5
2018-Feb-16 06:53N 23°05' E 119°55'613.0
2018-Feb-16 06:26N 23°10' E 119°55'613.2
2018-Feb-16 05:59N 23°16' E 119°55'713.7
2018-Feb-16 05:29N 23°23' E 119°56'9512.7
2018-Feb-15 22:00N 24°50' E 120°39'38012.7
2018-Feb-14 16:03N 30°50' E 122°56'112.6
2018-Feb-14 15:59N 30°50' E 122°56'912.9
2018-Feb-14 15:19N 30°58' E 122°52'412.5
2018-Feb-14 15:00N 31°02' E 122°51'511.0
2018-Feb-14 14:30N 31°05' E 122°46'612.5
2018-Feb-14 14:00N 31°05' E 122°38'611.9
2018-Feb-14 13:30N 31°06' E 122°31'7 8.7
2018-Feb-14 12:41N 31°06' E 122°23'310.3
2018-Feb-14 12:21N 31°06' E 122°19'410.7
2018-Feb-14 12:00N 31°08' E 122°15'712.5
2018-Feb-14 11:27N 31°12' E 122°09'613.5
2018-Feb-14 11:00N 31°14' E 122°02'1114.6
2018-Feb-14 10:15N 31°17' E 121°50'414.5
2018-Feb-14 10:00N 31°18' E 121°46'1112.1
2018-Feb-14 09:05N 31°23' E 121°34'110.2
2018-Feb-14 08:56N 31°24' E 121°33'4 9.7
2018-Feb-14 08:30N 31°27' E 121°29'510.7
2018-Feb-14 08:00N 31°30' E 121°24'611.3
2018-Feb-14 07:30N 31°34' E 121°19'713.2
2018-Feb-14 07:00N 31°39' E 121°14'611.6
2018-Feb-14 06:30N 31°42' E 121°08'711.4
2018-Feb-14 05:55N 31°46' E 121°02'2810.0
2018-Feb-14 03:08N 32°01' E 120°34'212.9
2018-Feb-14 03:00N 32°01' E 120°32'  
2018-Feb-07 23:35N 31°46' E 121°03'113.4
2018-Feb-07 23:30N 31°45' E 121°05'612.6
2018-Feb-07 22:59N 31°41' E 121°10'511.6
2018-Feb-07 22:31N 31°38' E 121°16'1 1.8
2018-Feb-07 21:59N 31°39' E 121°17'0 0.0
2018-Feb-07 21:29N 31°39' E 121°17'  
Track history (hours):
 
Tides and Currents Weather Stations Pressure Air Temp Water Temp Dewpoint Dewpoint Depression Visibility Wind Speed Wind Dir Waves Ship Positions

Alpha Bulker

Last reported at 2018-Feb-17 19:57 UTC. Time now 2018-Feb-20 11:55 UTC.
Position N 15°01' E 119°42'.

Length 177 m; draft 8.9 m.

Type: Ship. MMSI: 371977000.

Date/timePositionNaut miles runAvg speedWind from/ knotsBaromVisibWave heightAir tempDewpointWater temp
2018-Feb-17 19:57N 15°01' E 119°42'42113.0
2018-Feb-16 11:27N 22°02' E 119°52'713.3
2018-Feb-16 10:53N 22°09' E 119°52'713.6
2018-Feb-16 10:24N 22°16' E 119°52'514.0
2018-Feb-16 10:00N 22°22' E 119°52'714.0
2018-Feb-16 09:30N 22°29' E 119°53'713.9
2018-Feb-16 09:00N 22°35' E 119°53'713.9
2018-Feb-16 08:31N 22°42' E 119°54'713.9
2018-Feb-16 08:00N 22°49' E 119°54'714.0
2018-Feb-16 07:30N 22°57' E 119°54'813.5
2018-Feb-16 06:53N 23°05' E 119°55'613.0
2018-Feb-16 06:26N 23°10' E 119°55'613.2
2018-Feb-16 05:59N 23°16' E 119°55'713.7
2018-Feb-16 05:29N 23°23' E 119°56'9512.7
2018-Feb-15 22:00N 24°50' E 120°39'38012.7
2018-Feb-14 16:03N 30°50' E 122°56'112.6
2018-Feb-14 15:59N 30°50' E 122°56'912.9
2018-Feb-14 15:19N 30°58' E 122°52'412.5
2018-Feb-14 15:00N 31°02' E 122°51'511.0
2018-Feb-14 14:30N 31°05' E 122°46'612.5
2018-Feb-14 14:00N 31°05' E 122°38'611.9
2018-Feb-14 13:30N 31°06' E 122°31'7 8.7
2018-Feb-14 12:41N 31°06' E 122°23'310.3
2018-Feb-14 12:21N 31°06' E 122°19'410.7
2018-Feb-14 12:00N 31°08' E 122°15'712.5
2018-Feb-14 11:27N 31°12' E 122°09'613.5
2018-Feb-14 11:00N 31°14' E 122°02'1114.6
2018-Feb-14 10:15N 31°17' E 121°50'414.5
2018-Feb-14 10:00N 31°18' E 121°46'1112.1
2018-Feb-14 09:05N 31°23' E 121°34'110.2
2018-Feb-14 08:56N 31°24' E 121°33'4 9.7
2018-Feb-14 08:30N 31°27' E 121°29'510.7
2018-Feb-14 08:00N 31°30' E 121°24'611.3
2018-Feb-14 07:30N 31°34' E 121°19'713.2
2018-Feb-14 07:00N 31°39' E 121°14'611.6
2018-Feb-14 06:30N 31°42' E 121°08'711.4
2018-Feb-14 05:55N 31°46' E 121°02'2810.0
2018-Feb-14 03:08N 32°01' E 120°34'212.9
2018-Feb-14 03:00N 32°01' E 120°32'  
2018-Feb-07 23:35N 31°46' E 121°03'113.4
2018-Feb-07 23:30N 31°45' E 121°05'612.6
2018-Feb-07 22:59N 31°41' E 121°10'511.6
2018-Feb-07 22:31N 31°38' E 121°16'1 1.8
2018-Feb-07 21:59N 31°39' E 121°17'0 0.0
2018-Feb-07 21:29N 31°39' E 121°17'  

Dump ship's entire track history